sensor_id;sensor_type;location;lat;lon;timestamp;temperature;humidity
51579;DHT22;47998;53.242;6.386;2024-01-27T00:00:09;2.90;99.90
51579;DHT22;47998;53.242;6.386;2024-01-27T00:02:35;2.90;99.90
51579;DHT22;47998;53.242;6.386;2024-01-27T00:05:01;2.90;99.90
51579;DHT22;47998;53.242;6.386;2024-01-27T00:07:28;2.70;99.90
51579;DHT22;47998;53.242;6.386;2024-01-27T00:09:54;2.70;99.90
51579;DHT22;47998;53.242;6.386;2024-01-27T00:12:21;2.80;99.90
51579;DHT22;47998;53.242;6.386;2024-01-27T00:14:46;2.90;99.90
51579;DHT22;47998;53.242;6.386;2024-01-27T00:17:12;2.90;99.90
51579;DHT22;47998;53.242;6.386;2024-01-27T00:19:38;3.00;99.90
51579;DHT22;47998;53.242;6.386;2024-01-27T00:22:03;3.00;99.90
51579;DHT22;47998;53.242;6.386;2024-01-27T00:24:29;3.00;99.90
51579;DHT22;47998;53.242;6.386;2024-01-27T00:26:55;3.10;99.90
51579;DHT22;47998;53.242;6.386;2024-01-27T00:29:21;3.00;99.90
51579;DHT22;47998;53.242;6.386;2024-01-27T00:31:47;3.20;99.90
51579;DHT22;47998;53.242;6.386;2024-01-27T00:34:12;3.20;99.90
51579;DHT22;47998;53.242;6.386;2024-01-27T00:36:38;3.30;99.90
51579;DHT22;47998;53.242;6.386;2024-01-27T00:39:04;3.30;99.90
51579;DHT22;47998;53.242;6.386;2024-01-27T00:41:30;3.10;99.90
51579;DHT22;47998;53.242;6.386;2024-01-27T00:43:55;2.90;99.90
51579;DHT22;47998;53.242;6.386;2024-01-27T00:46:21;2.90;99.90
51579;DHT22;47998;53.242;6.386;2024-01-27T00:48:47;2.90;99.90
51579;DHT22;47998;53.242;6.386;2024-01-27T00:51:13;2.80;99.90
51579;DHT22;47998;53.242;6.386;2024-01-27T00:53:39;2.90;99.90
51579;DHT22;47998;53.242;6.386;2024-01-27T00:56:05;2.80;99.90
51579;DHT22;47998;53.242;6.386;2024-01-27T00:58:31;2.80;99.90
51579;DHT22;47998;53.242;6.386;2024-01-27T01:00:57;2.80;99.90
51579;DHT22;47998;53.242;6.386;2024-01-27T01:03:24;2.70;99.90
51579;DHT22;47998;53.242;6.386;2024-01-27T01:05:50;2.80;99.90
51579;DHT22;47998;53.242;6.386;2024-01-27T01:08:15;2.70;99.90
51579;DHT22;47998;53.242;6.386;2024-01-27T01:10:41;2.80;99.90
51579;DHT22;47998;53.242;6.386;2024-01-27T01:13:07;2.80;99.90
51579;DHT22;47998;53.242;6.386;2024-01-27T01:15:32;2.80;99.90
51579;DHT22;47998;53.242;6.386;2024-01-27T01:17:58;2.80;99.90
51579;DHT22;47998;53.242;6.386;2024-01-27T01:20:25;2.80;99.90
51579;DHT22;47998;53.242;6.386;2024-01-27T01:22:52;2.80;99.90
51579;DHT22;47998;53.242;6.386;2024-01-27T01:25:18;2.80;99.90
51579;DHT22;47998;53.242;6.386;2024-01-27T01:27:45;2.80;99.90
51579;DHT22;47998;53.242;6.386;2024-01-27T01:30:11;2.70;99.90
51579;DHT22;47998;53.242;6.386;2024-01-27T01:32:37;2.80;99.90
51579;DHT22;47998;53.242;6.386;2024-01-27T01:35:03;2.80;99.90
51579;DHT22;47998;53.242;6.386;2024-01-27T01:37:29;2.80;99.90
51579;DHT22;47998;53.242;6.386;2024-01-27T01:39:55;2.80;99.90
51579;DHT22;47998;53.242;6.386;2024-01-27T01:42:21;2.90;99.90
51579;DHT22;47998;53.242;6.386;2024-01-27T01:44:51;2.90;99.90
51579;DHT22;47998;53.242;6.386;2024-01-27T01:47:17;2.90;99.90
51579;DHT22;47998;53.242;6.386;2024-01-27T01:49:42;2.90;99.90
51579;DHT22;47998;53.242;6.386;2024-01-27T01:52:09;2.80;99.90
51579;DHT22;47998;53.242;6.386;2024-01-27T01:54:36;2.80;99.90
51579;DHT22;47998;53.242;6.386;2024-01-27T01:57:03;2.80;99.90
51579;DHT22;47998;53.242;6.386;2024-01-27T01:59:29;2.70;99.90
51579;DHT22;47998;53.242;6.386;2024-01-27T02:01:54;2.60;99.90
51579;DHT22;47998;53.242;6.386;2024-01-27T02:04:20;2.60;99.90
51579;DHT22;47998;53.242;6.386;2024-01-27T02:06:46;2.60;99.90
51579;DHT22;47998;53.242;6.386;2024-01-27T02:09:12;2.50;99.90
51579;DHT22;47998;53.242;6.386;2024-01-27T02:11:38;2.50;99.90
51579;DHT22;47998;53.242;6.386;2024-01-27T02:14:04;2.70;99.90
51579;DHT22;47998;53.242;6.386;2024-01-27T02:16:30;2.60;99.90
51579;DHT22;47998;53.242;6.386;2024-01-27T02:18:55;2.50;99.90
51579;DHT22;47998;53.242;6.386;2024-01-27T02:21:21;2.50;99.90
51579;DHT22;47998;53.242;6.386;2024-01-27T02:23:47;2.50;99.90
51579;DHT22;47998;53.242;6.386;2024-01-27T02:26:12;2.40;99.90
51579;DHT22;47998;53.242;6.386;2024-01-27T02:28:38;2.40;99.90
51579;DHT22;47998;53.242;6.386;2024-01-27T02:31:04;2.30;99.90
51579;DHT22;47998;53.242;6.386;2024-01-27T02:33:30;2.40;99.90
51579;DHT22;47998;53.242;6.386;2024-01-27T02:35:55;2.60;99.90
51579;DHT22;47998;53.242;6.386;2024-01-27T02:38:21;2.70;99.90
51579;DHT22;47998;53.242;6.386;2024-01-27T02:40:47;2.70;99.90
51579;DHT22;47998;53.242;6.386;2024-01-27T02:43:12;3.00;99.90
51579;DHT22;47998;53.242;6.386;2024-01-27T02:45:38;2.80;99.90
51579;DHT22;47998;53.242;6.386;2024-01-27T02:48:04;2.80;99.90
51579;DHT22;47998;53.242;6.386;2024-01-27T02:50:30;2.80;99.90
51579;DHT22;47998;53.242;6.386;2024-01-27T02:52:55;2.90;99.90
51579;DHT22;47998;53.242;6.386;2024-01-27T02:55:21;2.80;99.90
51579;DHT22;47998;53.242;6.386;2024-01-27T02:57:47;2.70;99.90
51579;DHT22;47998;53.242;6.386;2024-01-27T03:00:13;2.70;99.90
51579;DHT22;47998;53.242;6.386;2024-01-27T03:02:38;2.80;99.90
51579;DHT22;47998;53.242;6.386;2024-01-27T03:05:05;2.80;99.90
51579;DHT22;47998;53.242;6.386;2024-01-27T03:07:30;2.80;99.90
51579;DHT22;47998;53.242;6.386;2024-01-27T03:09:56;2.90;99.90
51579;DHT22;47998;53.242;6.386;2024-01-27T03:12:22;2.90;99.90
51579;DHT22;47998;53.242;6.386;2024-01-27T03:14:48;3.00;99.90
51579;DHT22;47998;53.242;6.386;2024-01-27T03:17:15;3.00;99.90
51579;DHT22;47998;53.242;6.386;2024-01-27T03:19:41;3.00;99.90
51579;DHT22;47998;53.242;6.386;2024-01-27T03:22:07;2.90;99.90
51579;DHT22;47998;53.242;6.386;2024-01-27T03:24:32;2.90;99.90
51579;DHT22;47998;53.242;6.386;2024-01-27T03:26:58;2.90;99.90
51579;DHT22;47998;53.242;6.386;2024-01-27T03:29:24;2.90;99.90
51579;DHT22;47998;53.242;6.386;2024-01-27T03:31:50;2.80;99.90
51579;DHT22;47998;53.242;6.386;2024-01-27T03:34:15;2.90;99.90
51579;DHT22;47998;53.242;6.386;2024-01-27T03:36:43;2.90;99.90
51579;DHT22;47998;53.242;6.386;2024-01-27T03:39:12;2.90;99.90
51579;DHT22;47998;53.242;6.386;2024-01-27T03:41:37;2.70;99.90
51579;DHT22;47998;53.242;6.386;2024-01-27T03:44:03;2.70;99.90
51579;DHT22;47998;53.242;6.386;2024-01-27T03:46:29;2.90;99.90
51579;DHT22;47998;53.242;6.386;2024-01-27T03:48:54;2.80;99.90
51579;DHT22;47998;53.242;6.386;2024-01-27T03:51:20;2.80;99.90
51579;DHT22;47998;53.242;6.386;2024-01-27T03:53:46;2.80;99.90
51579;DHT22;47998;53.242;6.386;2024-01-27T03:56:12;3.00;99.90
51579;DHT22;47998;53.242;6.386;2024-01-27T03:58:38;2.60;99.90
51579;DHT22;47998;53.242;6.386;2024-01-27T04:01:04;2.60;99.90
51579;DHT22;47998;53.242;6.386;2024-01-27T04:03:30;2.60;99.90
51579;DHT22;47998;53.242;6.386;2024-01-27T04:05:56;2.70;99.90
51579;DHT22;47998;53.242;6.386;2024-01-27T04:08:21;2.80;99.90
51579;DHT22;47998;53.242;6.386;2024-01-27T04:10:47;2.80;99.90
51579;DHT22;47998;53.242;6.386;2024-01-27T04:13:13;2.80;99.90
51579;DHT22;47998;53.242;6.386;2024-01-27T04:15:39;2.80;99.90
51579;DHT22;47998;53.242;6.386;2024-01-27T04:18:05;3.00;99.90
51579;DHT22;47998;53.242;6.386;2024-01-27T04:20:33;2.70;99.90
51579;DHT22;47998;53.242;6.386;2024-01-27T04:22:59;2.80;99.90
51579;DHT22;47998;53.242;6.386;2024-01-27T04:25:25;2.70;99.90
51579;DHT22;47998;53.242;6.386;2024-01-27T04:27:50;2.80;99.90
51579;DHT22;47998;53.242;6.386;2024-01-27T04:30:16;2.70;99.90
51579;DHT22;47998;53.242;6.386;2024-01-27T04:32:42;2.50;99.90
51579;DHT22;47998;53.242;6.386;2024-01-27T04:35:11;2.50;99.90
51579;DHT22;47998;53.242;6.386;2024-01-27T04:37:37;2.50;99.90
51579;DHT22;47998;53.242;6.386;2024-01-27T04:40:07;2.50;99.90
51579;DHT22;47998;53.242;6.386;2024-01-27T04:42:33;2.50;99.90
51579;DHT22;47998;53.242;6.386;2024-01-27T04:45:00;2.50;99.90
51579;DHT22;47998;53.242;6.386;2024-01-27T04:47:25;2.50;99.90
51579;DHT22;47998;53.242;6.386;2024-01-27T04:49:51;2.60;99.90
51579;DHT22;47998;53.242;6.386;2024-01-27T04:52:17;2.70;99.90
51579;DHT22;47998;53.242;6.386;2024-01-27T04:54:42;2.80;99.90
51579;DHT22;47998;53.242;6.386;2024-01-27T04:57:09;2.90;99.90
51579;DHT22;47998;53.242;6.386;2024-01-27T04:59:35;2.70;99.90
51579;DHT22;47998;53.242;6.386;2024-01-27T05:02:01;2.70;99.90
51579;DHT22;47998;53.242;6.386;2024-01-27T05:04:26;2.70;99.90
51579;DHT22;47998;53.242;6.386;2024-01-27T05:06:52;2.60;99.90
51579;DHT22;47998;53.242;6.386;2024-01-27T05:09:18;2.50;99.90
51579;DHT22;47998;53.242;6.386;2024-01-27T05:11:44;2.40;99.90
51579;DHT22;47998;53.242;6.386;2024-01-27T05:14:11;2.60;99.90
51579;DHT22;47998;53.242;6.386;2024-01-27T05:16:37;2.10;99.90
51579;DHT22;47998;53.242;6.386;2024-01-27T05:19:03;2.00;99.90
51579;DHT22;47998;53.242;6.386;2024-01-27T05:21:28;1.80;99.90
51579;DHT22;47998;53.242;6.386;2024-01-27T05:23:57;1.80;99.90
51579;DHT22;47998;53.242;6.386;2024-01-27T05:26:22;1.80;99.90
51579;DHT22;47998;53.242;6.386;2024-01-27T05:28:48;1.80;99.90
51579;DHT22;47998;53.242;6.386;2024-01-27T05:31:14;1.70;99.90
51579;DHT22;47998;53.242;6.386;2024-01-27T05:33:42;1.70;99.90
51579;DHT22;47998;53.242;6.386;2024-01-27T05:36:08;1.70;99.90
51579;DHT22;47998;53.242;6.386;2024-01-27T05:38:33;1.60;99.90
51579;DHT22;47998;53.242;6.386;2024-01-27T05:41:02;1.60;99.90
51579;DHT22;47998;53.242;6.386;2024-01-27T05:43:28;1.60;99.90
51579;DHT22;47998;53.242;6.386;2024-01-27T05:45:54;1.70;99.90
51579;DHT22;47998;53.242;6.386;2024-01-27T05:48:20;1.70;99.90
51579;DHT22;47998;53.242;6.386;2024-01-27T05:50:58;1.80;99.90
51579;DHT22;47998;53.242;6.386;2024-01-27T05:53:24;1.80;99.90
51579;DHT22;47998;53.242;6.386;2024-01-27T05:55:50;1.90;99.90
51579;DHT22;47998;53.242;6.386;2024-01-27T05:58:16;1.90;99.90
51579;DHT22;47998;53.242;6.386;2024-01-27T06:00:45;2.00;99.90
51579;DHT22;47998;53.242;6.386;2024-01-27T06:03:11;2.10;99.90
51579;DHT22;47998;53.242;6.386;2024-01-27T06:05:37;2.20;99.90
51579;DHT22;47998;53.242;6.386;2024-01-27T06:08:04;2.10;99.90
51579;DHT22;47998;53.242;6.386;2024-01-27T06:10:30;2.10;99.90
51579;DHT22;47998;53.242;6.386;2024-01-27T06:12:57;1.90;99.90
51579;DHT22;47998;53.242;6.386;2024-01-27T06:15:22;1.90;99.90
51579;DHT22;47998;53.242;6.386;2024-01-27T06:17:48;1.80;99.90
51579;DHT22;47998;53.242;6.386;2024-01-27T06:20:14;1.80;99.90
51579;DHT22;47998;53.242;6.386;2024-01-27T06:22:41;1.60;99.90
51579;DHT22;47998;53.242;6.386;2024-01-27T06:25:08;1.50;99.90
51579;DHT22;47998;53.242;6.386;2024-01-27T06:27:34;1.40;99.90
51579;DHT22;47998;53.242;6.386;2024-01-27T06:30:00;1.20;99.90
51579;DHT22;47998;53.242;6.386;2024-01-27T06:32:25;1.10;99.90
51579;DHT22;47998;53.242;6.386;2024-01-27T06:34:51;1.10;99.90
51579;DHT22;47998;53.242;6.386;2024-01-27T06:37:17;1.10;99.90
51579;DHT22;47998;53.242;6.386;2024-01-27T06:39:42;1.20;99.90
51579;DHT22;47998;53.242;6.386;2024-01-27T06:42:08;1.00;99.90
51579;DHT22;47998;53.242;6.386;2024-01-27T06:44:34;1.00;99.90
51579;DHT22;47998;53.242;6.386;2024-01-27T06:46:59;1.20;99.90
51579;DHT22;47998;53.242;6.386;2024-01-27T06:49:25;1.10;99.90
51579;DHT22;47998;53.242;6.386;2024-01-27T06:51:51;1.20;99.90
51579;DHT22;47998;53.242;6.386;2024-01-27T06:54:16;1.70;99.90
51579;DHT22;47998;53.242;6.386;2024-01-27T06:56:42;1.30;99.90
51579;DHT22;47998;53.242;6.386;2024-01-27T06:59:08;1.40;99.90
51579;DHT22;47998;53.242;6.386;2024-01-27T07:01:33;1.40;99.90
51579;DHT22;47998;53.242;6.386;2024-01-27T07:03:59;1.50;99.90
51579;DHT22;47998;53.242;6.386;2024-01-27T07:06:27;1.50;99.90
51579;DHT22;47998;53.242;6.386;2024-01-27T07:09:02;1.50;99.90
51579;DHT22;47998;53.242;6.386;2024-01-27T07:11:49;1.40;99.90
51579;DHT22;47998;53.242;6.386;2024-01-27T07:14:29;1.40;99.90
51579;DHT22;47998;53.242;6.386;2024-01-27T07:17:06;1.40;99.90
51579;DHT22;47998;53.242;6.386;2024-01-27T07:19:32;1.30;99.90
51579;DHT22;47998;53.242;6.386;2024-01-27T07:21:58;1.30;99.90
51579;DHT22;47998;53.242;6.386;2024-01-27T07:24:25;1.40;99.90
51579;DHT22;47998;53.242;6.386;2024-01-27T07:26:51;1.40;99.90
51579;DHT22;47998;53.242;6.386;2024-01-27T07:29:17;1.30;99.90
51579;DHT22;47998;53.242;6.386;2024-01-27T07:31:42;1.30;99.90
51579;DHT22;47998;53.242;6.386;2024-01-27T07:34:08;1.30;99.90
51579;DHT22;47998;53.242;6.386;2024-01-27T07:36:34;1.40;99.90
51579;DHT22;47998;53.242;6.386;2024-01-27T07:39:00;1.30;99.90
51579;DHT22;47998;53.242;6.386;2024-01-27T07:41:25;1.30;99.90
51579;DHT22;47998;53.242;6.386;2024-01-27T07:43:51;1.40;99.90
51579;DHT22;47998;53.242;6.386;2024-01-27T07:46:17;1.50;99.90
51579;DHT22;47998;53.242;6.386;2024-01-27T07:48:47;1.50;99.90
51579;DHT22;47998;53.242;6.386;2024-01-27T07:51:13;1.50;99.90
51579;DHT22;47998;53.242;6.386;2024-01-27T07:53:57;1.50;99.90
51579;DHT22;47998;53.242;6.386;2024-01-27T07:56:26;1.50;99.90
51579;DHT22;47998;53.242;6.386;2024-01-27T07:58:52;1.50;99.90
51579;DHT22;47998;53.242;6.386;2024-01-27T08:01:19;1.50;99.90
51579;DHT22;47998;53.242;6.386;2024-01-27T08:03:44;1.50;99.90
51579;DHT22;47998;53.242;6.386;2024-01-27T08:06:16;1.50;99.90
51579;DHT22;47998;53.242;6.386;2024-01-27T08:08:46;1.50;99.90
51579;DHT22;47998;53.242;6.386;2024-01-27T08:11:13;1.50;99.90
51579;DHT22;47998;53.242;6.386;2024-01-27T08:13:39;1.50;99.90
51579;DHT22;47998;53.242;6.386;2024-01-27T08:16:05;1.60;99.90
51579;DHT22;47998;53.242;6.386;2024-01-27T08:18:31;1.60;99.90
51579;DHT22;47998;53.242;6.386;2024-01-27T08:20:57;1.70;99.90
51579;DHT22;47998;53.242;6.386;2024-01-27T08:23:23;1.60;99.90
51579;DHT22;47998;53.242;6.386;2024-01-27T08:25:49;1.80;99.90
51579;DHT22;47998;53.242;6.386;2024-01-27T08:28:18;1.60;99.90
51579;DHT22;47998;53.242;6.386;2024-01-27T08:30:44;1.60;99.90
51579;DHT22;47998;53.242;6.386;2024-01-27T08:33:09;1.60;99.90
51579;DHT22;47998;53.242;6.386;2024-01-27T08:35:35;1.60;99.90
51579;DHT22;47998;53.242;6.386;2024-01-27T08:38:01;1.70;99.90
51579;DHT22;47998;53.242;6.386;2024-01-27T08:40:29;1.70;99.90
51579;DHT22;47998;53.242;6.386;2024-01-27T08:42:55;1.80;99.90
51579;DHT22;47998;53.242;6.386;2024-01-27T08:45:20;1.90;99.90
51579;DHT22;47998;53.242;6.386;2024-01-27T08:47:46;2.00;99.90
51579;DHT22;47998;53.242;6.386;2024-01-27T08:50:12;2.10;99.90
51579;DHT22;47998;53.242;6.386;2024-01-27T08:52:38;2.10;99.90
51579;DHT22;47998;53.242;6.386;2024-01-27T08:55:04;2.20;99.90
51579;DHT22;47998;53.242;6.386;2024-01-27T08:57:29;2.30;99.90
51579;DHT22;47998;53.242;6.386;2024-01-27T08:59:55;2.40;99.90
51579;DHT22;47998;53.242;6.386;2024-01-27T09:02:21;2.40;99.90
51579;DHT22;47998;53.242;6.386;2024-01-27T09:04:46;2.50;99.90
51579;DHT22;47998;53.242;6.386;2024-01-27T09:07:12;2.80;99.90
51579;DHT22;47998;53.242;6.386;2024-01-27T09:09:38;2.60;99.90
51579;DHT22;47998;53.242;6.386;2024-01-27T09:12:04;2.70;99.90
51579;DHT22;47998;53.242;6.386;2024-01-27T09:14:30;2.70;99.90
51579;DHT22;47998;53.242;6.386;2024-01-27T09:16:56;2.80;99.90
51579;DHT22;47998;53.242;6.386;2024-01-27T09:19:22;2.90;99.90
51579;DHT22;47998;53.242;6.386;2024-01-27T09:21:48;2.90;99.90
51579;DHT22;47998;53.242;6.386;2024-01-27T09:24:14;3.10;99.90
51579;DHT22;47998;53.242;6.386;2024-01-27T09:26:40;3.20;99.90
51579;DHT22;47998;53.242;6.386;2024-01-27T09:29:06;3.30;99.90
51579;DHT22;47998;53.242;6.386;2024-01-27T09:31:32;3.30;99.90
51579;DHT22;47998;53.242;6.386;2024-01-27T09:33:57;3.40;99.90
51579;DHT22;47998;53.242;6.386;2024-01-27T09:36:26;3.50;99.90
51579;DHT22;47998;53.242;6.386;2024-01-27T09:38:52;3.50;99.90
51579;DHT22;47998;53.242;6.386;2024-01-27T09:41:21;3.60;99.90
51579;DHT22;47998;53.242;6.386;2024-01-27T09:43:47;3.70;99.90
51579;DHT22;47998;53.242;6.386;2024-01-27T09:46:15;3.80;99.90
51579;DHT22;47998;53.242;6.386;2024-01-27T09:48:41;3.90;99.90
51579;DHT22;47998;53.242;6.386;2024-01-27T09:51:08;4.10;99.90
51579;DHT22;47998;53.242;6.386;2024-01-27T09:53:35;4.10;99.90
51579;DHT22;47998;53.242;6.386;2024-01-27T09:56:01;4.10;99.90
51579;DHT22;47998;53.242;6.386;2024-01-27T09:58:29;4.20;99.90
51579;DHT22;47998;53.242;6.386;2024-01-27T10:00:56;4.30;99.90
51579;DHT22;47998;53.242;6.386;2024-01-27T10:03:26;4.40;99.90
51579;DHT22;47998;53.242;6.386;2024-01-27T10:05:54;4.40;99.90
51579;DHT22;47998;53.242;6.386;2024-01-27T10:08:21;4.50;99.90
51579;DHT22;47998;53.242;6.386;2024-01-27T10:10:47;4.60;99.90
51579;DHT22;47998;53.242;6.386;2024-01-27T10:13:16;4.80;99.90
51579;DHT22;47998;53.242;6.386;2024-01-27T10:16:03;4.90;99.90
51579;DHT22;47998;53.242;6.386;2024-01-27T10:18:30;5.00;99.90
51579;DHT22;47998;53.242;6.386;2024-01-27T10:20:57;5.00;99.90
51579;DHT22;47998;53.242;6.386;2024-01-27T10:23:23;5.10;99.90
51579;DHT22;47998;53.242;6.386;2024-01-27T10:25:49;5.20;99.90
51579;DHT22;47998;53.242;6.386;2024-01-27T10:28:16;5.20;99.90
51579;DHT22;47998;53.242;6.386;2024-01-27T10:30:45;5.30;99.90
51579;DHT22;47998;53.242;6.386;2024-01-27T10:33:14;5.30;99.90
51579;DHT22;47998;53.242;6.386;2024-01-27T10:35:40;5.30;99.90
51579;DHT22;47998;53.242;6.386;2024-01-27T10:38:06;5.30;99.90
51579;DHT22;47998;53.242;6.386;2024-01-27T10:40:34;5.40;99.90
51579;DHT22;47998;53.242;6.386;2024-01-27T10:43:05;5.40;99.90
51579;DHT22;47998;53.242;6.386;2024-01-27T10:45:39;5.50;99.90
51579;DHT22;47998;53.242;6.386;2024-01-27T10:48:06;5.50;99.90
51579;DHT22;47998;53.242;6.386;2024-01-27T10:50:36;5.50;99.90
51579;DHT22;47998;53.242;6.386;2024-01-27T10:53:17;5.70;99.90
51579;DHT22;47998;53.242;6.386;2024-01-27T10:55:46;5.70;99.90
51579;DHT22;47998;53.242;6.386;2024-01-27T10:58:12;5.80;99.90
51579;DHT22;47998;53.242;6.386;2024-01-27T11:00:41;5.90;99.90
51579;DHT22;47998;53.242;6.386;2024-01-27T11:03:09;6.10;99.90
51579;DHT22;47998;53.242;6.386;2024-01-27T11:05:37;6.30;99.90
51579;DHT22;47998;53.242;6.386;2024-01-27T11:08:05;6.50;99.90
51579;DHT22;47998;53.242;6.386;2024-01-27T11:10:31;6.50;99.90
51579;DHT22;47998;53.242;6.386;2024-01-27T11:13:04;6.60;99.90
51579;DHT22;47998;53.242;6.386;2024-01-27T11:15:31;6.70;99.90
51579;DHT22;47998;53.242;6.386;2024-01-27T11:17:58;6.70;99.90
51579;DHT22;47998;53.242;6.386;2024-01-27T11:20:31;6.80;99.90
51579;DHT22;47998;53.242;6.386;2024-01-27T11:23:11;6.80;99.90
51579;DHT22;47998;53.242;6.386;2024-01-27T11:25:37;6.80;99.90
51579;DHT22;47998;53.242;6.386;2024-01-27T11:28:11;6.80;99.90
51579;DHT22;47998;53.242;6.386;2024-01-27T11:30:39;6.80;99.90
51579;DHT22;47998;53.242;6.386;2024-01-27T11:33:06;6.90;99.90
51579;DHT22;47998;53.242;6.386;2024-01-27T11:35:31;7.00;99.90
51579;DHT22;47998;53.242;6.386;2024-01-27T11:37:57;7.00;99.90
51579;DHT22;47998;53.242;6.386;2024-01-27T11:40:23;7.10;99.90
51579;DHT22;47998;53.242;6.386;2024-01-27T11:42:59;7.00;99.90
51579;DHT22;47998;53.242;6.386;2024-01-27T11:45:26;7.00;99.90
51579;DHT22;47998;53.242;6.386;2024-01-27T11:47:53;7.00;99.90
51579;DHT22;47998;53.242;6.386;2024-01-27T11:50:19;7.00;99.90
51579;DHT22;47998;53.242;6.386;2024-01-27T11:52:46;7.00;99.90
51579;DHT22;47998;53.242;6.386;2024-01-27T11:55:13;7.10;99.90
51579;DHT22;47998;53.242;6.386;2024-01-27T11:57:41;7.20;99.90
51579;DHT22;47998;53.242;6.386;2024-01-27T12:00:07;7.20;99.90
51579;DHT22;47998;53.242;6.386;2024-01-27T12:02:35;7.30;99.90
51579;DHT22;47998;53.242;6.386;2024-01-27T12:05:01;7.30;99.90
51579;DHT22;47998;53.242;6.386;2024-01-27T12:07:27;7.30;99.90
51579;DHT22;47998;53.242;6.386;2024-01-27T12:09:53;7.40;99.90
51579;DHT22;47998;53.242;6.386;2024-01-27T12:12:19;7.40;99.90
51579;DHT22;47998;53.242;6.386;2024-01-27T12:14:47;7.30;99.90
51579;DHT22;47998;53.242;6.386;2024-01-27T12:17:13;7.40;99.90
51579;DHT22;47998;53.242;6.386;2024-01-27T12:19:49;7.40;99.90
51579;DHT22;47998;53.242;6.386;2024-01-27T12:22:25;7.40;99.90
51579;DHT22;47998;53.242;6.386;2024-01-27T12:24:56;7.40;99.90
51579;DHT22;47998;53.242;6.386;2024-01-27T12:27:32;7.50;99.90
51579;DHT22;47998;53.242;6.386;2024-01-27T12:30:00;7.50;99.90
51579;DHT22;47998;53.242;6.386;2024-01-27T12:32:26;7.50;99.90
51579;DHT22;47998;53.242;6.386;2024-01-27T12:34:52;7.50;99.90
51579;DHT22;47998;53.242;6.386;2024-01-27T12:37:20;7.50;99.90
51579;DHT22;47998;53.242;6.386;2024-01-27T12:39:46;7.50;99.90
51579;DHT22;47998;53.242;6.386;2024-01-27T12:42:12;7.70;99.90
51579;DHT22;47998;53.242;6.386;2024-01-27T12:44:41;8.10;99.90
51579;DHT22;47998;53.242;6.386;2024-01-27T12:47:07;8.40;99.90
51579;DHT22;47998;53.242;6.386;2024-01-27T12:49:34;8.80;99.90
51579;DHT22;47998;53.242;6.386;2024-01-27T12:52:00;8.90;99.90
51579;DHT22;47998;53.242;6.386;2024-01-27T12:54:25;8.90;99.90
51579;DHT22;47998;53.242;6.386;2024-01-27T12:56:51;9.10;99.90
51579;DHT22;47998;53.242;6.386;2024-01-27T12:59:18;9.30;99.90
51579;DHT22;47998;53.242;6.386;2024-01-27T13:01:43;9.40;99.90
51579;DHT22;47998;53.242;6.386;2024-01-27T13:04:09;9.20;99.90
51579;DHT22;47998;53.242;6.386;2024-01-27T13:06:35;9.50;99.90
51579;DHT22;47998;53.242;6.386;2024-01-27T13:09:01;9.50;99.90
51579;DHT22;47998;53.242;6.386;2024-01-27T13:11:27;9.50;99.90
51579;DHT22;47998;53.242;6.386;2024-01-27T13:13:53;9.20;99.90
51579;DHT22;47998;53.242;6.386;2024-01-27T13:16:18;9.20;99.90
51579;DHT22;47998;53.242;6.386;2024-01-27T13:18:44;9.10;99.90
51579;DHT22;47998;53.242;6.386;2024-01-27T13:21:11;9.10;99.90
51579;DHT22;47998;53.242;6.386;2024-01-27T13:23:37;9.10;99.90
51579;DHT22;47998;53.242;6.386;2024-01-27T13:26:03;9.20;99.90
51579;DHT22;47998;53.242;6.386;2024-01-27T13:28:29;9.20;99.90
51579;DHT22;47998;53.242;6.386;2024-01-27T13:30:55;9.30;99.90
51579;DHT22;47998;53.242;6.386;2024-01-27T13:33:21;9.40;99.90
51579;DHT22;47998;53.242;6.386;2024-01-27T13:35:46;9.40;99.90
51579;DHT22;47998;53.242;6.386;2024-01-27T13:38:16;9.50;99.90
51579;DHT22;47998;53.242;6.386;2024-01-27T13:40:51;9.40;99.90
51579;DHT22;47998;53.242;6.386;2024-01-27T13:43:17;9.10;99.90
51579;DHT22;47998;53.242;6.386;2024-01-27T13:45:43;9.20;99.90
51579;DHT22;47998;53.242;6.386;2024-01-27T13:48:09;9.30;99.90
51579;DHT22;47998;53.242;6.386;2024-01-27T13:50:35;9.20;99.90
51579;DHT22;47998;53.242;6.386;2024-01-27T13:53:01;9.20;99.90
51579;DHT22;47998;53.242;6.386;2024-01-27T13:55:26;8.90;99.90
51579;DHT22;47998;53.242;6.386;2024-01-27T13:57:52;8.70;99.90
51579;DHT22;47998;53.242;6.386;2024-01-27T14:00:18;8.50;99.90
51579;DHT22;47998;53.242;6.386;2024-01-27T14:02:44;8.40;99.90
51579;DHT22;47998;53.242;6.386;2024-01-27T14:05:10;8.40;99.90
51579;DHT22;47998;53.242;6.386;2024-01-27T14:07:36;8.50;99.90
51579;DHT22;47998;53.242;6.386;2024-01-27T14:10:02;8.50;99.90
51579;DHT22;47998;53.242;6.386;2024-01-27T14:12:28;8.30;99.90
51579;DHT22;47998;53.242;6.386;2024-01-27T14:15:01;8.20;99.90
51579;DHT22;47998;53.242;6.386;2024-01-27T14:17:27;8.30;99.90
51579;DHT22;47998;53.242;6.386;2024-01-27T14:19:52;8.30;99.90
51579;DHT22;47998;53.242;6.386;2024-01-27T14:22:18;8.10;99.90
51579;DHT22;47998;53.242;6.386;2024-01-27T14:24:44;8.00;99.90
51579;DHT22;47998;53.242;6.386;2024-01-27T14:27:10;7.90;99.90
51579;DHT22;47998;53.242;6.386;2024-01-27T14:29:36;7.90;99.90
51579;DHT22;47998;53.242;6.386;2024-01-27T14:32:03;7.90;99.90
51579;DHT22;47998;53.242;6.386;2024-01-27T14:34:28;8.00;99.90
51579;DHT22;47998;53.242;6.386;2024-01-27T14:36:54;8.00;99.90
51579;DHT22;47998;53.242;6.386;2024-01-27T14:39:20;8.10;99.90
51579;DHT22;47998;53.242;6.386;2024-01-27T14:41:46;8.00;99.90
51579;DHT22;47998;53.242;6.386;2024-01-27T14:44:12;8.00;99.90
51579;DHT22;47998;53.242;6.386;2024-01-27T14:46:38;7.90;99.90
51579;DHT22;47998;53.242;6.386;2024-01-27T14:49:08;7.90;99.90
51579;DHT22;47998;53.242;6.386;2024-01-27T14:51:35;7.80;99.90
51579;DHT22;47998;53.242;6.386;2024-01-27T14:54:01;7.80;99.90
51579;DHT22;47998;53.242;6.386;2024-01-27T14:56:30;7.70;99.90
51579;DHT22;47998;53.242;6.386;2024-01-27T14:58:57;7.40;99.90
51579;DHT22;47998;53.242;6.386;2024-01-27T15:01:22;7.20;99.90
51579;DHT22;47998;53.242;6.386;2024-01-27T15:03:48;7.10;99.90
51579;DHT22;47998;53.242;6.386;2024-01-27T15:06:14;7.00;99.90
51579;DHT22;47998;53.242;6.386;2024-01-27T15:08:40;6.80;99.90
51579;DHT22;47998;53.242;6.386;2024-01-27T15:11:06;6.80;99.90
51579;DHT22;47998;53.242;6.386;2024-01-27T15:13:32;6.70;99.90
51579;DHT22;47998;53.242;6.386;2024-01-27T15:15:58;6.60;99.90
51579;DHT22;47998;53.242;6.386;2024-01-27T15:18:24;6.50;99.90
51579;DHT22;47998;53.242;6.386;2024-01-27T15:20:50;6.50;99.90
51579;DHT22;47998;53.242;6.386;2024-01-27T15:23:15;6.40;99.90
51579;DHT22;47998;53.242;6.386;2024-01-27T15:25:41;6.30;99.90
51579;DHT22;47998;53.242;6.386;2024-01-27T15:28:07;6.30;99.90
51579;DHT22;47998;53.242;6.386;2024-01-27T15:30:33;6.20;99.90
51579;DHT22;47998;53.242;6.386;2024-01-27T15:32:59;6.10;99.90
51579;DHT22;47998;53.242;6.386;2024-01-27T15:35:25;6.00;99.90
51579;DHT22;47998;53.242;6.386;2024-01-27T15:37:50;5.90;99.90
51579;DHT22;47998;53.242;6.386;2024-01-27T15:40:16;5.80;99.90